createdAt,value
2023-04-14T00:01:15.602Z,35.86
2023-04-14T00:06:14.695Z,36.27
2023-04-14T00:11:17.114Z,36.89
2023-04-14T00:16:13.180Z,36.91
2023-04-14T00:21:11.557Z,37.01
2023-04-14T00:26:12.707Z,37.01
2023-04-14T00:31:10.847Z,36.71
2023-04-14T00:36:09.907Z,36.82
2023-04-14T00:41:09.203Z,36.19
2023-04-14T00:46:08.547Z,37.01
2023-04-14T00:51:07.827Z,36.93
2023-04-14T00:56:07.156Z,36.93
2023-04-14T01:01:06.531Z,37.02
2023-04-14T01:06:05.906Z,37.24
2023-04-14T01:11:04.994Z,37.97
2023-04-14T01:16:06.427Z,38.07
2023-04-14T01:21:03.573Z,37.77
2023-04-14T01:26:02.953Z,38.61
2023-04-14T01:31:02.092Z,39.76
2023-04-14T01:36:02.366Z,40.49
2023-04-14T01:41:01.668Z,39.97
2023-04-14T01:46:02.047Z,40.29
2023-04-14T01:50:59.148Z,39.88
2023-04-14T01:55:58.499Z,39.78
2023-04-14T02:00:57.688Z,39.68
2023-04-14T02:05:57.802Z,39.06
2023-04-14T02:10:57.085Z,39.15
2023-04-14T02:15:55.408Z,38.95
2023-04-14T02:20:54.724Z,39.48
2023-04-14T02:25:54.069Z,39.37
2023-04-14T02:30:53.128Z,38.63
2023-04-14T02:35:52.448Z,39.68
2023-04-14T02:40:53.718Z,38.53
2023-04-14T02:45:50.028Z,38.01
2023-04-14T02:50:53.340Z,36.96
2023-04-14T02:55:51.631Z,37.06
2023-04-14T03:00:48.943Z,37.60
2023-04-14T03:05:49.249Z,37.38
2023-04-14T03:10:48.572Z,38.63
2023-04-14T03:15:45.870Z,38.63
2023-04-14T03:20:48.027Z,38.11
2023-04-14T03:25:45.278Z,38.63
2023-04-14T03:30:45.553Z,39.36
2023-04-14T03:35:44.821Z,39.26
2023-04-14T03:40:44.178Z,39.88
2023-04-14T03:45:42.313Z,39.48
2023-04-14T03:50:41.568Z,39.26
2023-04-14T03:55:40.868Z,39.28
2023-04-14T04:00:40.134Z,39.06
2023-04-14T04:05:39.454Z,39.36
2023-04-14T04:10:39.786Z,39.17
2023-04-14T04:15:38.067Z,39.37
2023-04-14T04:20:37.379Z,39.58
2023-04-14T04:25:37.675Z,39.58
2023-04-14T04:30:34.919Z,38.11
2023-04-14T04:35:34.226Z,37.08
2023-04-14T04:40:33.548Z,36.15
2023-04-14T04:45:34.817Z,36.25
2023-04-14T04:50:33.057Z,36.55
2023-04-14T04:55:32.334Z,36.55
2023-04-14T05:00:32.571Z,37.46
2023-04-14T05:05:30.787Z,37.08
2023-04-14T05:10:30.053Z,37.48
2023-04-14T05:15:30.343Z,37.79
2023-04-14T05:20:28.595Z,37.06
2023-04-14T05:25:30.989Z,38.23
2023-04-14T05:30:26.052Z,38.61
2023-04-14T05:35:28.345Z,38.95
2023-04-14T05:40:26.652Z,39.48
2023-04-14T05:45:25.100Z,40.31
2023-04-14T05:50:25.221Z,40.09
2023-04-14T05:55:23.398Z,40.71
2023-04-14T06:00:23.742Z,40.94
2023-04-14T06:05:23.109Z,39.88
2023-04-14T06:10:21.176Z,40.19
2023-04-14T06:15:20.521Z,39.88
2023-04-14T06:20:18.798Z,39.15
2023-04-14T06:25:20.119Z,39.04
2023-04-14T06:30:18.440Z,38.71
2023-04-14T06:35:29.609Z,38.19
2023-04-14T06:40:16.811Z,38.19
2023-04-14T06:45:16.111Z,40.21
2023-04-14T06:50:16.251Z,39.18
2023-04-14T06:55:15.480Z,38.26
2023-04-14T07:00:13.563Z,36.91
2023-04-14T07:05:12.910Z,35.65
2023-04-14T07:10:12.030Z,32.84
2023-04-14T07:15:11.325Z,29.61
2023-04-14T07:20:10.618Z,29.71
2023-04-14T07:25:11.953Z,29.61
2023-04-14T07:30:10.201Z,29.91
2023-04-14T07:35:08.510Z,29.38
2023-04-14T07:40:07.815Z,29.27
2023-04-14T07:45:07.211Z,29.17
2023-04-14T07:50:08.322Z,28.64
2023-04-14T07:55:05.643Z,27.28
2023-04-14T08:00:04.917Z,29.03
2023-04-14T08:05:04.328Z,28.42
2023-04-14T08:10:05.277Z,28.53
2023-04-14T08:15:08.481Z,28.41
2023-04-14T08:20:02.730Z,27.28
2023-04-14T08:25:01.999Z,26.84
2023-04-14T08:30:00.277Z,29.20
2023-04-14T08:35:37.199Z,27.15
2023-04-14T08:39:58.778Z,27.99
2023-04-14T08:44:58.075Z,29.11
2023-04-14T08:49:57.353Z,28.90
2023-04-14T08:54:56.630Z,27.58
2023-04-14T08:59:55.906Z,28.40
2023-04-14T09:04:55.391Z,26.28
2023-04-14T09:09:55.530Z,23.68
2023-04-14T09:14:53.815Z,22.95
2023-04-14T09:20:36.654Z,24.48
2023-04-14T09:24:53.325Z,25.46
2023-04-14T09:29:52.601Z,25.16
2023-04-14T09:34:52.152Z,24.38
2023-04-14T09:39:50.125Z,23.96
2023-04-14T09:44:49.392Z,23.67
2023-04-14T09:49:48.708Z,22.64
2023-04-14T09:54:48.000Z,24.69
2023-04-14T09:59:47.315Z,23.80
2023-04-14T10:04:45.665Z,24.98
2023-04-14T10:09:47.796Z,24.07
2023-04-14T10:14:45.087Z,23.56
2023-04-14T10:19:46.412Z,23.22
2023-04-14T10:24:43.709Z,21.56
2023-04-14T10:29:44.010Z,20.54
2023-04-14T10:34:42.851Z,19.71
2023-04-14T10:39:41.553Z,20.44
2023-04-14T10:44:41.842Z,20.45
2023-04-14T10:49:42.135Z,20.25
2023-04-14T10:54:39.373Z,20.96
2023-04-14T10:59:39.670Z,21.79
2023-04-14T11:04:37.984Z,22.09
2023-04-14T11:09:38.264Z,21.80
2023-04-14T11:14:38.542Z,21.59
2023-04-14T11:19:36.819Z,21.92
2023-04-14T11:24:36.110Z,21.37
2023-04-14T11:29:35.429Z,20.86
2023-04-14T11:34:34.726Z,20.54
2023-04-14T11:39:32.995Z,20.14
2023-04-14T11:44:32.276Z,20.04
2023-04-14T11:49:31.542Z,19.95
2023-04-14T11:54:30.862Z,20.26
2023-04-14T11:59:30.004Z,19.64
2023-04-14T12:04:29.391Z,19.75
2023-04-14T12:09:29.515Z,19.76
2023-04-14T12:14:27.817Z,19.89
2023-04-14T12:19:27.121Z,20.27
2023-04-14T12:24:26.453Z,19.88
2023-04-14T12:29:25.708Z,19.26
2023-04-14T12:34:24.975Z,19.46
2023-04-14T12:39:24.229Z,19.16
2023-04-14T12:44:25.494Z,18.19
2023-04-14T12:49:23.756Z,19.57
2023-04-14T12:54:22.035Z,18.96
2023-04-14T12:59:24.336Z,20.09
2023-04-14T13:04:20.743Z,18.88
2023-04-14T13:09:19.845Z,19.17
2023-04-14T13:14:19.136Z,19.08
2023-04-14T13:19:19.396Z,19.08
2023-04-14T13:24:19.689Z,19.29
2023-04-14T13:29:16.949Z,19.38
2023-04-14T13:34:16.147Z,18.98
2023-04-14T13:39:15.426Z,17.75
2023-04-14T13:44:14.712Z,19.24
2023-04-14T13:49:14.955Z,20.47
2023-04-14T13:54:13.235Z,21.29
2023-04-14T13:59:13.506Z,21.78
2023-04-14T14:04:13.836Z,19.78
2023-04-14T14:09:11.021Z,19.87
2023-04-14T14:14:12.124Z,20.28
2023-04-14T14:19:10.369Z,20.50
2023-04-14T14:24:08.632Z,20.68
2023-04-14T14:29:08.881Z,20.92
2023-04-14T14:34:07.149Z,20.73
2023-04-14T14:39:05.418Z,24.08
2023-04-14T14:44:06.977Z,20.73
2023-04-14T14:49:05.006Z,20.61
2023-04-14T14:54:09.885Z,21.41
2023-04-14T14:59:04.557Z,19.92
2023-04-14T15:04:02.140Z,19.93
2023-04-14T15:09:02.030Z,20.53
2023-04-14T15:14:03.438Z,24.08
2023-04-14T15:19:00.355Z,21.72
2023-04-14T15:24:00.846Z,19.42
2023-04-14T15:28:59.791Z,21.09
2023-04-14T15:33:58.054Z,22.85
2023-04-14T15:38:57.480Z,22.85
2023-04-14T15:43:56.577Z,19.89
2023-04-14T15:48:55.875Z,18.99
2023-04-14T15:53:55.159Z,22.06
2023-04-14T15:58:55.411Z,21.95
2023-04-14T16:03:54.617Z,19.09
2023-04-14T16:08:52.867Z,19.01
2023-04-14T16:13:52.258Z,19.52
2023-04-14T16:18:51.358Z,19.92
2023-04-14T16:23:50.621Z,19.92
2023-04-14T16:28:49.937Z,20.31
2023-04-14T16:33:49.227Z,17.52
2023-04-14T16:38:54.552Z,19.73
2023-04-14T16:43:49.794Z,20.81
2023-04-14T16:48:47.079Z,21.31
2023-04-14T16:53:46.338Z,20.43
2023-04-14T16:58:45.588Z,21.20
2023-04-14T17:03:46.048Z,21.97
2023-04-14T17:08:45.540Z,24.05
2023-04-14T17:13:43.439Z,22.95
2023-04-14T17:18:44.624Z,22.77
2023-04-14T17:23:43.888Z,23.57
2023-04-14T17:28:42.468Z,20.37
2023-04-14T17:33:40.376Z,21.19
2023-04-14T17:38:40.018Z,21.49
2023-04-14T17:43:40.796Z,21.89
2023-04-14T17:48:39.113Z,22.40
2023-04-14T17:53:38.615Z,21.59
2023-04-14T17:58:36.733Z,21.29
2023-04-14T18:03:36.271Z,21.80
2023-04-14T18:08:35.505Z,22.50
2023-04-14T18:13:34.600Z,20.59
2023-04-14T18:18:33.511Z,21.16
2023-04-14T18:23:33.103Z,20.78
2023-04-14T18:28:32.442Z,21.67
2023-04-14T18:33:33.417Z,23.33
2023-04-14T18:38:31.089Z,22.31
2023-04-14T18:43:30.146Z,21.13
2023-04-14T18:48:29.114Z,22.04
2023-04-14T18:53:27.771Z,23.11
2023-04-14T18:58:27.950Z,23.81
2023-04-14T19:03:27.323Z,22.71
2023-04-14T19:08:26.761Z,20.14
2023-04-14T19:13:25.704Z,21.36
2023-04-14T19:18:25.825Z,22.67
2023-04-14T19:23:26.386Z,22.89
2023-04-14T19:28:23.478Z,21.60
2023-04-14T19:33:23.221Z,22.74
2023-04-14T19:38:22.889Z,21.03
2023-04-14T19:43:23.137Z,21.37
2023-04-14T19:48:23.734Z,20.67
2023-04-14T19:53:22.818Z,20.60
2023-04-14T19:58:21.082Z,21.09
2023-04-14T20:03:22.195Z,20.99
2023-04-14T20:08:17.246Z,19.44
2023-04-14T20:13:17.200Z,19.93
2023-04-14T20:18:15.674Z,19.85
2023-04-14T20:23:14.989Z,21.19
2023-04-14T20:28:15.454Z,20.37
2023-04-14T20:33:13.775Z,21.39
2023-04-14T20:38:15.317Z,21.19
2023-04-14T20:43:12.075Z,20.29
2023-04-14T20:48:12.064Z,20.47
2023-04-14T20:53:11.326Z,20.46
2023-04-14T20:58:10.606Z,20.26
2023-04-14T21:03:09.344Z,20.06
2023-04-14T21:08:07.140Z,19.86
2023-04-14T21:15:24.908Z,19.98
2023-04-14T21:18:07.562Z,20.36
2023-04-14T21:23:05.851Z,20.27
2023-04-14T21:28:05.128Z,19.87
2023-04-14T21:33:07.383Z,19.87
2023-04-14T21:38:03.655Z,19.78
2023-04-14T21:43:02.914Z,19.46
2023-04-14T21:48:02.277Z,18.01
2023-04-14T21:53:01.365Z,19.54
2023-04-14T21:58:00.675Z,19.26
2023-04-14T22:03:01.065Z,21.14
2023-04-14T22:07:59.205Z,19.76
2023-04-14T22:12:58.300Z,20.28
2023-04-14T22:17:58.631Z,22.19
2023-04-14T22:22:56.828Z,21.38
2023-04-14T22:27:56.154Z,22.73
2023-04-14T22:32:55.481Z,21.30
2023-04-14T22:37:55.725Z,20.57
2023-04-14T22:42:55.014Z,20.38
2023-04-14T22:47:53.317Z,20.78
2023-04-14T22:52:53.577Z,18.35
2023-04-14T22:57:52.889Z,21.50
2023-04-14T23:02:52.467Z,20.40
2023-04-14T23:07:50.518Z,19.20
2023-04-14T23:12:49.800Z,19.95
2023-04-14T23:17:49.132Z,18.73
2023-04-14T23:22:49.209Z,20.41
2023-04-14T23:27:48.494Z,19.68
2023-04-14T23:32:46.819Z,19.98
2023-04-14T23:37:46.103Z,19.32
2023-04-14T23:42:46.396Z,19.64
2023-04-14T23:47:44.656Z,19.85
2023-04-14T23:52:44.921Z,21.85
2023-04-14T23:57:44.189Z,21.08
